sensor_id;sensor_type;location;lat;lon;timestamp;P1;durP1;ratioP1;P2;durP2;ratioP2
35223;SDS011;21367;51.930;8.112;2023-08-07T00:04:33;14.00;;;1.90;;
35223;SDS011;21367;51.930;8.112;2023-08-07T00:09:37;12.75;;;1.77;;
35223;SDS011;21367;51.930;8.112;2023-08-07T00:14:41;8.80;;;1.88;;
35223;SDS011;21367;51.930;8.112;2023-08-07T00:19:48;12.70;;;1.85;;
35223;SDS011;21367;51.930;8.112;2023-08-07T00:24:52;15.63;;;1.77;;
35223;SDS011;21367;51.930;8.112;2023-08-07T00:29:56;7.75;;;2.15;;
35223;SDS011;21367;51.930;8.112;2023-08-07T00:35:02;7.43;;;1.60;;
35223;SDS011;21367;51.930;8.112;2023-08-07T00:40:09;4.70;;;1.20;;
35223;SDS011;21367;51.930;8.112;2023-08-07T00:45:14;8.57;;;1.80;;
35223;SDS011;21367;51.930;8.112;2023-08-07T00:50:20;5.35;;;1.48;;
35223;SDS011;21367;51.930;8.112;2023-08-07T00:55:25;7.97;;;1.90;;
35223;SDS011;21367;51.930;8.112;2023-08-07T01:00:30;7.18;;;1.67;;
35223;SDS011;21367;51.930;8.112;2023-08-07T01:05:36;4.68;;;1.85;;
35223;SDS011;21367;51.930;8.112;2023-08-07T01:10:44;3.30;;;1.65;;
35223;SDS011;21367;51.930;8.112;2023-08-07T01:15:58;7.57;;;1.98;;
35223;SDS011;21367;51.930;8.112;2023-08-07T01:21:11;10.20;;;2.05;;
35223;SDS011;21367;51.930;8.112;2023-08-07T01:26:23;8.48;;;1.90;;
35223;SDS011;21367;51.930;8.112;2023-08-07T01:31:26;10.57;;;1.85;;
35223;SDS011;21367;51.930;8.112;2023-08-07T01:36:35;5.30;;;1.85;;
35223;SDS011;21367;51.930;8.112;2023-08-07T01:41:44;4.13;;;1.88;;
35223;SDS011;21367;51.930;8.112;2023-08-07T01:46:49;2.80;;;1.40;;
35223;SDS011;21367;51.930;8.112;2023-08-07T01:51:52;7.03;;;1.77;;
35223;SDS011;21367;51.930;8.112;2023-08-07T01:56:59;3.67;;;1.83;;
35223;SDS011;21367;51.930;8.112;2023-08-07T02:07:06;6.32;;;1.65;;
35223;SDS011;21367;51.930;8.112;2023-08-07T02:12:12;7.90;;;1.98;;
35223;SDS011;21367;51.930;8.112;2023-08-07T02:17:16;7.25;;;2.60;;
35223;SDS011;21367;51.930;8.112;2023-08-07T02:22:20;5.57;;;2.38;;
35223;SDS011;21367;51.930;8.112;2023-08-07T02:27:26;6.55;;;2.42;;
35223;SDS011;21367;51.930;8.112;2023-08-07T02:37:33;7.75;;;2.42;;
35223;SDS011;21367;51.930;8.112;2023-08-07T02:42:39;8.43;;;3.22;;
35223;SDS011;21367;51.930;8.112;2023-08-07T02:52:46;13.13;;;4.38;;
35223;SDS011;21367;51.930;8.112;2023-08-07T02:57:52;9.05;;;4.00;;
35223;SDS011;21367;51.930;8.112;2023-08-07T03:02:56;7.85;;;3.83;;
35223;SDS011;21367;51.930;8.112;2023-08-07T03:08:00;14.18;;;4.60;;
35223;SDS011;21367;51.930;8.112;2023-08-07T03:13:06;12.57;;;5.57;;
35223;SDS011;21367;51.930;8.112;2023-08-07T03:18:10;10.77;;;4.05;;
35223;SDS011;21367;51.930;8.112;2023-08-07T03:23:14;9.45;;;4.20;;
35223;SDS011;21367;51.930;8.112;2023-08-07T03:28:20;9.93;;;3.50;;
35223;SDS011;21367;51.930;8.112;2023-08-07T03:33:24;9.50;;;4.15;;
35223;SDS011;21367;51.930;8.112;2023-08-07T03:38:28;13.68;;;3.42;;
35223;SDS011;21367;51.930;8.112;2023-08-07T03:43:35;9.77;;;3.38;;
35223;SDS011;21367;51.930;8.112;2023-08-07T03:48:39;6.50;;;3.25;;
35223;SDS011;21367;51.930;8.112;2023-08-07T03:53:44;8.60;;;3.00;;
35223;SDS011;21367;51.930;8.112;2023-08-07T03:58:51;4.32;;;2.30;;
35223;SDS011;21367;51.930;8.112;2023-08-07T04:03:57;2.80;;;2.00;;
35223;SDS011;21367;51.930;8.112;2023-08-07T04:09:01;3.53;;;1.65;;
35223;SDS011;21367;51.930;8.112;2023-08-07T04:14:08;3.85;;;1.50;;
35223;SDS011;21367;51.930;8.112;2023-08-07T04:24:15;7.57;;;1.98;;
35223;SDS011;21367;51.930;8.112;2023-08-07T04:29:21;7.50;;;1.63;;
35223;SDS011;21367;51.930;8.112;2023-08-07T04:34:25;1.80;;;1.15;;
35223;SDS011;21367;51.930;8.112;2023-08-07T04:39:29;3.92;;;1.40;;
35223;SDS011;21367;51.930;8.112;2023-08-07T04:44:35;2.50;;;1.20;;
35223;SDS011;21367;51.930;8.112;2023-08-07T04:54:42;8.85;;;1.67;;
35223;SDS011;21367;51.930;8.112;2023-08-07T04:59:49;5.88;;;1.42;;
35223;SDS011;21367;51.930;8.112;2023-08-07T05:04:52;4.22;;;1.50;;
35223;SDS011;21367;51.930;8.112;2023-08-07T05:09:56;4.53;;;1.25;;
35223;SDS011;21367;51.930;8.112;2023-08-07T05:15:03;8.32;;;1.77;;
35223;SDS011;21367;51.930;8.112;2023-08-07T05:20:07;7.50;;;1.65;;
35223;SDS011;21367;51.930;8.112;2023-08-07T05:25:12;7.75;;;1.95;;
35223;SDS011;21367;51.930;8.112;2023-08-07T05:30:18;7.10;;;1.40;;
35223;SDS011;21367;51.930;8.112;2023-08-07T05:35:22;4.88;;;1.00;;
35223;SDS011;21367;51.930;8.112;2023-08-07T05:40:26;5.13;;;1.20;;
35223;SDS011;21367;51.930;8.112;2023-08-07T05:45:32;4.10;;;0.88;;
35223;SDS011;21367;51.930;8.112;2023-08-07T05:50:36;2.72;;;0.98;;
35223;SDS011;21367;51.930;8.112;2023-08-07T05:55:40;3.97;;;0.73;;
35223;SDS011;21367;51.930;8.112;2023-08-07T06:00:46;6.55;;;1.02;;
35223;SDS011;21367;51.930;8.112;2023-08-07T06:10:54;4.22;;;0.80;;
35223;SDS011;21367;51.930;8.112;2023-08-07T06:16:00;7.20;;;1.25;;
35223;SDS011;21367;51.930;8.112;2023-08-07T06:26:07;8.15;;;1.33;;
35223;SDS011;21367;51.930;8.112;2023-08-07T06:31:14;4.07;;;1.40;;
35223;SDS011;21367;51.930;8.112;2023-08-07T06:36:19;16.13;;;1.50;;
35223;SDS011;21367;51.930;8.112;2023-08-07T06:41:22;6.38;;;1.33;;
35223;SDS011;21367;51.930;8.112;2023-08-07T06:46:29;7.22;;;1.63;;
35223;SDS011;21367;51.930;8.112;2023-08-07T06:56:36;8.90;;;1.70;;
35223;SDS011;21367;51.930;8.112;2023-08-07T07:01:45;12.30;;;2.85;;
35223;SDS011;21367;51.930;8.112;2023-08-07T07:06:49;7.70;;;1.98;;
35223;SDS011;21367;51.930;8.112;2023-08-07T07:11:52;9.35;;;2.35;;
35223;SDS011;21367;51.930;8.112;2023-08-07T07:16:59;11.63;;;2.15;;
35223;SDS011;21367;51.930;8.112;2023-08-07T07:22:03;11.48;;;2.33;;
35223;SDS011;21367;51.930;8.112;2023-08-07T07:27:07;9.98;;;2.40;;
35223;SDS011;21367;51.930;8.112;2023-08-07T07:32:13;8.38;;;2.30;;
35223;SDS011;21367;51.930;8.112;2023-08-07T07:37:17;12.27;;;2.03;;
35223;SDS011;21367;51.930;8.112;2023-08-07T07:42:26;10.57;;;2.10;;
35223;SDS011;21367;51.930;8.112;2023-08-07T07:47:33;9.40;;;2.80;;
35223;SDS011;21367;51.930;8.112;2023-08-07T07:52:36;14.57;;;2.05;;
35223;SDS011;21367;51.930;8.112;2023-08-07T07:57:40;11.05;;;1.88;;
35223;SDS011;21367;51.930;8.112;2023-08-07T08:02:46;13.73;;;2.40;;
35223;SDS011;21367;51.930;8.112;2023-08-07T08:07:50;11.60;;;2.60;;
35223;SDS011;21367;51.930;8.112;2023-08-07T08:12:54;14.15;;;2.47;;
35223;SDS011;21367;51.930;8.112;2023-08-07T08:18:00;13.02;;;2.58;;
35223;SDS011;21367;51.930;8.112;2023-08-07T08:23:04;13.60;;;2.72;;
35223;SDS011;21367;51.930;8.112;2023-08-07T08:28:08;15.02;;;2.50;;
35223;SDS011;21367;51.930;8.112;2023-08-07T08:33:15;18.50;;;2.50;;
35223;SDS011;21367;51.930;8.112;2023-08-07T08:43:22;8.02;;;2.67;;
35223;SDS011;21367;51.930;8.112;2023-08-07T08:48:31;13.05;;;2.40;;
35223;SDS011;21367;51.930;8.112;2023-08-07T08:53:38;9.70;;;3.03;;
35223;SDS011;21367;51.930;8.112;2023-08-07T08:58:42;13.48;;;2.75;;
35223;SDS011;21367;51.930;8.112;2023-08-07T09:03:53;14.63;;;2.60;;
35223;SDS011;21367;51.930;8.112;2023-08-07T09:08:56;15.93;;;2.97;;
35223;SDS011;21367;51.930;8.112;2023-08-07T09:14:01;9.68;;;2.05;;
35223;SDS011;21367;51.930;8.112;2023-08-07T09:19:09;12.13;;;1.75;;
35223;SDS011;21367;51.930;8.112;2023-08-07T09:24:12;16.58;;;2.00;;
35223;SDS011;21367;51.930;8.112;2023-08-07T09:29:20;8.25;;;1.80;;
35223;SDS011;21367;51.930;8.112;2023-08-07T09:34:26;10.50;;;2.15;;
35223;SDS011;21367;51.930;8.112;2023-08-07T09:39:33;13.50;;;2.13;;
35223;SDS011;21367;51.930;8.112;2023-08-07T09:44:37;11.30;;;2.22;;
35223;SDS011;21367;51.930;8.112;2023-08-07T09:49:44;12.52;;;2.13;;
35223;SDS011;21367;51.930;8.112;2023-08-07T09:54:48;14.32;;;2.63;;
35223;SDS011;21367;51.930;8.112;2023-08-07T09:59:51;10.00;;;2.25;;
35223;SDS011;21367;51.930;8.112;2023-08-07T10:04:57;14.38;;;2.63;;
35223;SDS011;21367;51.930;8.112;2023-08-07T10:10:05;27.98;;;2.95;;
35223;SDS011;21367;51.930;8.112;2023-08-07T10:15:10;13.85;;;2.70;;
35223;SDS011;21367;51.930;8.112;2023-08-07T10:20:20;7.60;;;1.98;;
35223;SDS011;21367;51.930;8.112;2023-08-07T10:25:26;10.70;;;1.80;;
35223;SDS011;21367;51.930;8.112;2023-08-07T10:30:31;8.02;;;1.85;;
35223;SDS011;21367;51.930;8.112;2023-08-07T10:35:44;10.90;;;2.10;;
35223;SDS011;21367;51.930;8.112;2023-08-07T10:40:59;11.60;;;3.00;;
35223;SDS011;21367;51.930;8.112;2023-08-07T10:46:10;10.77;;;2.55;;
35223;SDS011;21367;51.930;8.112;2023-08-07T10:51:17;14.20;;;2.58;;
35223;SDS011;21367;51.930;8.112;2023-08-07T10:56:29;9.60;;;2.60;;
35223;SDS011;21367;51.930;8.112;2023-08-07T11:01:40;16.42;;;3.10;;
35223;SDS011;21367;51.930;8.112;2023-08-07T11:06:48;14.35;;;2.90;;
35223;SDS011;21367;51.930;8.112;2023-08-07T11:11:52;14.10;;;2.60;;
35223;SDS011;21367;51.930;8.112;2023-08-07T11:16:56;11.27;;;2.90;;
35223;SDS011;21367;51.930;8.112;2023-08-07T11:22:02;10.05;;;2.42;;
35223;SDS011;21367;51.930;8.112;2023-08-07T11:27:07;12.13;;;2.67;;
35223;SDS011;21367;51.930;8.112;2023-08-07T11:32:11;12.38;;;3.80;;
35223;SDS011;21367;51.930;8.112;2023-08-07T11:37:17;8.38;;;2.63;;
35223;SDS011;21367;51.930;8.112;2023-08-07T11:42:22;11.50;;;2.72;;
35223;SDS011;21367;51.930;8.112;2023-08-07T11:47:26;15.55;;;2.88;;
35223;SDS011;21367;51.930;8.112;2023-08-07T11:52:33;13.02;;;3.00;;
35223;SDS011;21367;51.930;8.112;2023-08-07T11:57:37;11.38;;;2.55;;
35223;SDS011;21367;51.930;8.112;2023-08-07T12:02:45;14.75;;;3.00;;
35223;SDS011;21367;51.930;8.112;2023-08-07T12:07:51;19.92;;;3.25;;
35223;SDS011;21367;51.930;8.112;2023-08-07T12:12:58;19.50;;;3.55;;
35223;SDS011;21367;51.930;8.112;2023-08-07T12:18:07;15.30;;;2.67;;
35223;SDS011;21367;51.930;8.112;2023-08-07T12:23:16;17.98;;;3.30;;
35223;SDS011;21367;51.930;8.112;2023-08-07T12:28:21;9.20;;;1.95;;
35223;SDS011;21367;51.930;8.112;2023-08-07T12:33:25;11.55;;;2.60;;
35223;SDS011;21367;51.930;8.112;2023-08-07T12:38:31;12.32;;;2.53;;
35223;SDS011;21367;51.930;8.112;2023-08-07T12:43:35;10.13;;;2.55;;
35223;SDS011;21367;51.930;8.112;2023-08-07T12:48:39;17.48;;;2.72;;
35223;SDS011;21367;51.930;8.112;2023-08-07T12:53:45;15.25;;;2.30;;
35223;SDS011;21367;51.930;8.112;2023-08-07T12:58:51;13.10;;;2.67;;
35223;SDS011;21367;51.930;8.112;2023-08-07T13:03:55;11.38;;;2.55;;
35223;SDS011;21367;51.930;8.112;2023-08-07T13:09:01;16.58;;;2.33;;
35223;SDS011;21367;51.930;8.112;2023-08-07T13:14:05;16.95;;;2.00;;
35223;SDS011;21367;51.930;8.112;2023-08-07T13:19:09;9.68;;;1.70;;
35223;SDS011;21367;51.930;8.112;2023-08-07T13:24:15;12.38;;;2.85;;
35223;SDS011;21367;51.930;8.112;2023-08-07T13:29:19;10.77;;;2.60;;
35223;SDS011;21367;51.930;8.112;2023-08-07T13:34:23;18.40;;;2.45;;
35223;SDS011;21367;51.930;8.112;2023-08-07T13:39:30;10.40;;;1.95;;
35223;SDS011;21367;51.930;8.112;2023-08-07T13:44:33;11.65;;;2.20;;
35223;SDS011;21367;51.930;8.112;2023-08-07T13:49:37;10.52;;;2.58;;
35223;SDS011;21367;51.930;8.112;2023-08-07T13:54:45;17.40;;;2.15;;
35223;SDS011;21367;51.930;8.112;2023-08-07T13:59:48;14.55;;;2.30;;
35223;SDS011;21367;51.930;8.112;2023-08-07T14:10:00;6.53;;;2.08;;
35223;SDS011;21367;51.930;8.112;2023-08-07T14:15:04;13.23;;;2.83;;
35223;SDS011;21367;51.930;8.112;2023-08-07T14:20:09;12.33;;;2.20;;
35223;SDS011;21367;51.930;8.112;2023-08-07T14:25:16;12.48;;;2.28;;
35223;SDS011;21367;51.930;8.112;2023-08-07T14:30:22;8.77;;;2.05;;
35223;SDS011;21367;51.930;8.112;2023-08-07T14:35:25;11.45;;;2.15;;
35223;SDS011;21367;51.930;8.112;2023-08-07T14:40:31;7.97;;;1.85;;
35223;SDS011;21367;51.930;8.112;2023-08-07T14:45:38;5.72;;;1.90;;
35223;SDS011;21367;51.930;8.112;2023-08-07T14:50:42;8.85;;;1.95;;
35223;SDS011;21367;51.930;8.112;2023-08-07T14:55:48;7.82;;;1.67;;
35223;SDS011;21367;51.930;8.112;2023-08-07T15:00:53;8.57;;;1.80;;
35223;SDS011;21367;51.930;8.112;2023-08-07T15:05:57;10.27;;;1.90;;
35223;SDS011;21367;51.930;8.112;2023-08-07T15:11:03;6.85;;;1.70;;
35223;SDS011;21367;51.930;8.112;2023-08-07T15:16:07;5.47;;;1.45;;
35223;SDS011;21367;51.930;8.112;2023-08-07T15:21:11;5.28;;;1.60;;
35223;SDS011;21367;51.930;8.112;2023-08-07T15:26:17;10.38;;;2.10;;
35223;SDS011;21367;51.930;8.112;2023-08-07T15:31:21;8.88;;;1.85;;
35223;SDS011;21367;51.930;8.112;2023-08-07T15:36:25;5.22;;;1.55;;
35223;SDS011;21367;51.930;8.112;2023-08-07T15:41:31;8.25;;;1.65;;
35223;SDS011;21367;51.930;8.112;2023-08-07T15:46:36;8.70;;;1.70;;
35223;SDS011;21367;51.930;8.112;2023-08-07T15:51:40;5.18;;;1.50;;
35223;SDS011;21367;51.930;8.112;2023-08-07T15:56:46;8.48;;;2.00;;
35223;SDS011;21367;51.930;8.112;2023-08-07T16:01:50;8.25;;;2.88;;
35223;SDS011;21367;51.930;8.112;2023-08-07T16:06:54;8.02;;;1.95;;
35223;SDS011;21367;51.930;8.112;2023-08-07T16:12:00;5.30;;;2.13;;
35223;SDS011;21367;51.930;8.112;2023-08-07T16:17:04;12.07;;;1.92;;
35223;SDS011;21367;51.930;8.112;2023-08-07T16:22:08;17.65;;;2.53;;
35223;SDS011;21367;51.930;8.112;2023-08-07T16:27:14;12.40;;;2.35;;
35223;SDS011;21367;51.930;8.112;2023-08-07T16:32:18;11.88;;;2.13;;
35223;SDS011;21367;51.930;8.112;2023-08-07T16:37:22;12.45;;;2.10;;
35223;SDS011;21367;51.930;8.112;2023-08-07T16:42:28;7.75;;;2.00;;
35223;SDS011;21367;51.930;8.112;2023-08-07T16:47:32;8.85;;;2.08;;
35223;SDS011;21367;51.930;8.112;2023-08-07T16:52:36;18.25;;;2.45;;
35223;SDS011;21367;51.930;8.112;2023-08-07T16:57:42;9.82;;;2.00;;
35223;SDS011;21367;51.930;8.112;2023-08-07T17:02:46;11.77;;;2.08;;
35223;SDS011;21367;51.930;8.112;2023-08-07T17:07:50;6.22;;;2.40;;
35223;SDS011;21367;51.930;8.112;2023-08-07T17:12:57;13.38;;;2.20;;
35223;SDS011;21367;51.930;8.112;2023-08-07T17:18:01;7.47;;;1.92;;
35223;SDS011;21367;51.930;8.112;2023-08-07T17:23:05;11.63;;;2.33;;
35223;SDS011;21367;51.930;8.112;2023-08-07T17:28:11;11.07;;;2.00;;
35223;SDS011;21367;51.930;8.112;2023-08-07T17:33:18;7.78;;;2.03;;
35223;SDS011;21367;51.930;8.112;2023-08-07T17:38:21;10.15;;;2.67;;
35223;SDS011;21367;51.930;8.112;2023-08-07T17:43:27;8.75;;;2.28;;
35223;SDS011;21367;51.930;8.112;2023-08-07T17:48:31;7.97;;;1.80;;
35223;SDS011;21367;51.930;8.112;2023-08-07T17:53:35;9.65;;;2.10;;
35223;SDS011;21367;51.930;8.112;2023-08-07T17:58:41;8.18;;;2.08;;
35223;SDS011;21367;51.930;8.112;2023-08-07T18:08:49;6.18;;;1.85;;
35223;SDS011;21367;51.930;8.112;2023-08-07T18:13:55;11.35;;;1.50;;
35223;SDS011;21367;51.930;8.112;2023-08-07T18:19:00;8.43;;;1.33;;
35223;SDS011;21367;51.930;8.112;2023-08-07T18:24:04;8.88;;;1.45;;
35223;SDS011;21367;51.930;8.112;2023-08-07T18:29:10;8.27;;;1.75;;
35223;SDS011;21367;51.930;8.112;2023-08-07T18:34:14;7.97;;;1.52;;
35223;SDS011;21367;51.930;8.112;2023-08-07T18:39:18;4.25;;;1.42;;
35223;SDS011;21367;51.930;8.112;2023-08-07T18:44:24;13.80;;;1.63;;
35223;SDS011;21367;51.930;8.112;2023-08-07T18:49:28;6.32;;;1.92;;
35223;SDS011;21367;51.930;8.112;2023-08-07T18:54:32;4.55;;;1.40;;
35223;SDS011;21367;51.930;8.112;2023-08-07T18:59:38;6.00;;;1.65;;
35223;SDS011;21367;51.930;8.112;2023-08-07T19:04:42;6.50;;;1.77;;
35223;SDS011;21367;51.930;8.112;2023-08-07T19:09:46;13.55;;;1.90;;
35223;SDS011;21367;51.930;8.112;2023-08-07T19:14:52;6.15;;;1.58;;
35223;SDS011;21367;51.930;8.112;2023-08-07T19:19:56;7.82;;;1.98;;
35223;SDS011;21367;51.930;8.112;2023-08-07T19:24:59;12.32;;;2.13;;
35223;SDS011;21367;51.930;8.112;2023-08-07T19:30:06;6.78;;;1.90;;
35223;SDS011;21367;51.930;8.112;2023-08-07T19:35:10;5.75;;;1.65;;
35223;SDS011;21367;51.930;8.112;2023-08-07T19:40:14;7.38;;;1.80;;
35223;SDS011;21367;51.930;8.112;2023-08-07T19:45:26;6.80;;;2.15;;
35223;SDS011;21367;51.930;8.112;2023-08-07T19:50:30;10.93;;;2.28;;
35223;SDS011;21367;51.930;8.112;2023-08-07T19:55:33;13.70;;;2.42;;
35223;SDS011;21367;51.930;8.112;2023-08-07T20:00:40;5.35;;;2.38;;
35223;SDS011;21367;51.930;8.112;2023-08-07T20:05:43;5.15;;;2.22;;
35223;SDS011;21367;51.930;8.112;2023-08-07T20:10:47;6.57;;;2.60;;
35223;SDS011;21367;51.930;8.112;2023-08-07T20:15:54;7.95;;;2.28;;
35223;SDS011;21367;51.930;8.112;2023-08-07T20:21:00;8.95;;;2.22;;
35223;SDS011;21367;51.930;8.112;2023-08-07T20:26:03;9.00;;;2.28;;
35223;SDS011;21367;51.930;8.112;2023-08-07T20:31:10;9.55;;;2.35;;
35223;SDS011;21367;51.930;8.112;2023-08-07T20:41:17;10.18;;;2.50;;
35223;SDS011;21367;51.930;8.112;2023-08-07T20:46:24;7.57;;;2.25;;
35223;SDS011;21367;51.930;8.112;2023-08-07T20:51:28;8.25;;;2.95;;
35223;SDS011;21367;51.930;8.112;2023-08-07T20:56:32;12.52;;;2.47;;
35223;SDS011;21367;51.930;8.112;2023-08-07T21:01:38;12.50;;;2.65;;
35223;SDS011;21367;51.930;8.112;2023-08-07T21:06:44;12.40;;;2.60;;
35223;SDS011;21367;51.930;8.112;2023-08-07T21:11:50;15.77;;;2.90;;
35223;SDS011;21367;51.930;8.112;2023-08-07T21:16:57;7.30;;;2.63;;
35223;SDS011;21367;51.930;8.112;2023-08-07T21:22:01;12.00;;;3.20;;
35223;SDS011;21367;51.930;8.112;2023-08-07T21:27:05;8.68;;;3.35;;
35223;SDS011;21367;51.930;8.112;2023-08-07T21:37:18;11.80;;;3.20;;
35223;SDS011;21367;51.930;8.112;2023-08-07T21:42:21;16.15;;;3.45;;
35223;SDS011;21367;51.930;8.112;2023-08-07T21:47:28;9.98;;;3.17;;
35223;SDS011;21367;51.930;8.112;2023-08-07T21:52:32;19.63;;;3.40;;
35223;SDS011;21367;51.930;8.112;2023-08-07T21:57:36;8.50;;;2.72;;
35223;SDS011;21367;51.930;8.112;2023-08-07T22:02:42;13.55;;;3.22;;
35223;SDS011;21367;51.930;8.112;2023-08-07T22:07:48;11.10;;;3.03;;
35223;SDS011;21367;51.930;8.112;2023-08-07T22:12:52;7.30;;;3.08;;
35223;SDS011;21367;51.930;8.112;2023-08-07T22:17:58;14.60;;;3.53;;
35223;SDS011;21367;51.930;8.112;2023-08-07T22:28:06;9.20;;;3.05;;
35223;SDS011;21367;51.930;8.112;2023-08-07T22:33:12;8.80;;;3.05;;
35223;SDS011;21367;51.930;8.112;2023-08-07T22:38:16;11.27;;;3.45;;
35223;SDS011;21367;51.930;8.112;2023-08-07T22:43:20;8.88;;;3.22;;
35223;SDS011;21367;51.930;8.112;2023-08-07T22:48:26;8.65;;;3.80;;
35223;SDS011;21367;51.930;8.112;2023-08-07T22:53:30;14.32;;;4.07;;
35223;SDS011;21367;51.930;8.112;2023-08-07T22:58:33;14.27;;;4.68;;
35223;SDS011;21367;51.930;8.112;2023-08-07T23:03:39;18.50;;;6.80;;
35223;SDS011;21367;51.930;8.112;2023-08-07T23:13:47;25.65;;;7.80;;
35223;SDS011;21367;51.930;8.112;2023-08-07T23:18:53;21.38;;;8.02;;
35223;SDS011;21367;51.930;8.112;2023-08-07T23:23:57;18.95;;;7.63;;
35223;SDS011;21367;51.930;8.112;2023-08-07T23:29:00;19.33;;;9.10;;
35223;SDS011;21367;51.930;8.112;2023-08-07T23:34:07;22.25;;;8.10;;
35223;SDS011;21367;51.930;8.112;2023-08-07T23:39:10;22.52;;;8.40;;
35223;SDS011;21367;51.930;8.112;2023-08-07T23:44:14;29.15;;;9.15;;
35223;SDS011;21367;51.930;8.112;2023-08-07T23:49:22;20.83;;;7.25;;
35223;SDS011;21367;51.930;8.112;2023-08-07T23:54:26;20.83;;;6.95;;
35223;SDS011;21367;51.930;8.112;2023-08-07T23:59:30;16.50;;;6.65;;
